createdAt,value
2023-10-23T00:02:27.742Z,4.00
2023-10-23T00:04:55.954Z,2.47
2023-10-23T00:07:24.086Z,3.42
2023-10-23T00:09:52.482Z,4.67
2023-10-23T00:12:20.548Z,5.97
2023-10-23T00:14:48.519Z,3.50
2023-10-23T00:17:17.969Z,3.30
2023-10-23T00:19:45.961Z,5.30
2023-10-23T00:22:13.952Z,9.18
2023-10-23T00:24:42.813Z,2.83
2023-10-23T00:27:10.845Z,6.28
2023-10-23T00:29:38.844Z,5.30
2023-10-23T00:32:07.641Z,4.82
2023-10-23T00:34:37.140Z,3.92
2023-10-23T00:37:05.752Z,3.25
2023-10-23T00:39:34.052Z,3.40
2023-10-23T00:42:02.106Z,3.08
2023-10-23T00:44:31.303Z,3.70
2023-10-23T00:46:59.514Z,3.25
2023-10-23T00:49:27.666Z,3.88
2023-10-23T00:51:57.469Z,3.35
2023-10-23T00:54:26.030Z,3.65
2023-10-23T00:56:54.179Z,4.82
2023-10-23T00:59:22.661Z,3.03
2023-10-23T01:01:50.788Z,5.20
2023-10-23T01:04:19.112Z,2.70
2023-10-23T01:06:47.176Z,4.90
2023-10-23T01:09:16.686Z,4.82
2023-10-23T01:11:44.817Z,3.75
2023-10-23T01:14:12.890Z,3.30
2023-10-23T01:16:41.058Z,4.37
2023-10-23T01:19:09.031Z,4.65
2023-10-23T01:21:37.928Z,2.88
2023-10-23T01:24:07.945Z,3.05
2023-10-23T01:26:37.345Z,5.57
2023-10-23T01:29:05.537Z,4.20
2023-10-23T01:31:33.604Z,5.23
2023-10-23T01:34:01.665Z,6.17
2023-10-23T01:36:29.762Z,5.03
2023-10-23T01:38:57.759Z,3.97
2023-10-23T01:41:25.824Z,5.60
2023-10-23T01:43:55.201Z,3.17
2023-10-23T01:46:23.279Z,3.10
2023-10-23T01:48:51.485Z,4.67
2023-10-23T01:51:19.759Z,3.28
2023-10-23T01:53:47.820Z,6.40
2023-10-23T01:56:15.827Z,4.47
2023-10-23T01:58:43.858Z,5.07
2023-10-23T02:01:22.377Z,5.20
2023-10-23T02:03:50.949Z,4.50
2023-10-23T02:06:19.307Z,2.87
2023-10-23T02:08:47.781Z,3.17
2023-10-23T02:11:15.900Z,2.90
2023-10-23T02:13:43.913Z,3.80
2023-10-23T02:16:12.160Z,3.50
2023-10-23T02:18:40.716Z,4.25
2023-10-23T02:21:08.867Z,7.23
2023-10-23T02:23:48.982Z,3.95
2023-10-23T02:26:24.167Z,6.07
2023-10-23T02:28:52.426Z,5.47
2023-10-23T02:31:20.798Z,4.00
2023-10-23T02:33:50.467Z,4.93
2023-10-23T02:36:18.916Z,5.53
2023-10-23T02:38:47.014Z,4.45
2023-10-23T02:41:15.040Z,4.47
2023-10-23T02:43:43.092Z,4.40
2023-10-23T02:46:11.463Z,5.82
2023-10-23T02:48:39.665Z,3.47
2023-10-23T02:51:09.288Z,3.70
2023-10-23T02:53:37.766Z,5.10
2023-10-23T02:56:06.433Z,6.95
2023-10-23T02:58:36.836Z,4.10
2023-10-23T03:01:05.686Z,3.08
2023-10-23T03:03:34.351Z,4.50
2023-10-23T03:06:02.561Z,3.95
2023-10-23T03:08:31.909Z,4.43
2023-10-23T03:11:00.434Z,4.22
2023-10-23T03:13:28.753Z,5.47
2023-10-23T03:15:57.020Z,5.60
2023-10-23T03:18:25.272Z,5.63
2023-10-23T03:20:53.447Z,5.90
2023-10-23T03:23:21.890Z,6.57
2023-10-23T03:25:51.311Z,4.40
2023-10-23T03:28:19.520Z,5.50
2023-10-23T03:30:47.838Z,5.28
2023-10-23T03:33:16.208Z,5.22
2023-10-23T03:35:44.497Z,7.07
2023-10-23T03:38:14.551Z,8.38
2023-10-23T03:40:42.735Z,4.03
2023-10-23T03:43:12.131Z,4.07
2023-10-23T03:45:42.470Z,3.65
2023-10-23T03:48:10.656Z,5.40
2023-10-23T03:50:39.012Z,3.70
2023-10-23T03:53:07.065Z,3.97
2023-10-23T03:55:38.346Z,3.30
2023-10-23T03:58:06.506Z,8.30
2023-10-23T04:00:36.789Z,4.23
2023-10-23T04:03:04.954Z,3.90
2023-10-23T04:05:33.101Z,4.00
2023-10-23T04:08:01.110Z,3.67
2023-10-23T04:10:29.141Z,4.40
2023-10-23T04:12:57.773Z,6.70
2023-10-23T04:15:25.944Z,4.70
2023-10-23T04:17:55.414Z,5.47
2023-10-23T04:20:23.424Z,6.15
2023-10-23T04:22:51.473Z,4.23
2023-10-23T04:25:20.764Z,5.87
2023-10-23T04:27:48.946Z,5.23
2023-10-23T04:30:17.852Z,4.67
2023-10-23T04:32:46.157Z,3.92
2023-10-23T04:35:15.623Z,5.23
2023-10-23T04:37:43.598Z,7.83
2023-10-23T04:40:12.871Z,3.70
2023-10-23T04:42:40.924Z,5.90
2023-10-23T04:45:10.027Z,8.47
2023-10-23T04:47:38.137Z,7.10
2023-10-23T04:50:09.080Z,3.53
2023-10-23T04:52:46.126Z,4.60
2023-10-23T04:55:14.158Z,5.57
2023-10-23T04:57:42.231Z,5.60
2023-10-23T05:00:12.014Z,4.38
2023-10-23T05:02:40.047Z,4.10
2023-10-23T05:05:08.972Z,7.82
2023-10-23T05:07:36.953Z,7.10
2023-10-23T05:10:08.996Z,4.20
2023-10-23T05:12:37.821Z,5.38
2023-10-23T05:15:07.298Z,6.70
2023-10-23T05:17:35.311Z,4.45
2023-10-23T05:20:05.697Z,3.40
2023-10-23T05:22:35.146Z,9.60
2023-10-23T05:25:04.141Z,3.60
2023-10-23T05:27:33.546Z,5.90
2023-10-23T05:30:01.538Z,4.95
2023-10-23T05:32:41.921Z,4.90
2023-10-23T05:35:15.365Z,4.80
2023-10-23T05:37:44.046Z,4.13
2023-10-23T05:40:13.087Z,7.43
2023-10-23T05:42:42.877Z,6.18
2023-10-23T05:45:11.880Z,3.72
2023-10-23T05:47:39.912Z,4.57
2023-10-23T05:50:08.497Z,4.18
2023-10-23T05:52:36.757Z,6.15
2023-10-23T05:55:06.010Z,3.42
2023-10-23T05:57:34.502Z,6.55
2023-10-23T06:00:04.900Z,5.35
2023-10-23T06:02:32.938Z,6.47
2023-10-23T06:05:01.009Z,4.07
2023-10-23T06:07:31.146Z,4.10
2023-10-23T06:10:00.840Z,4.38
2023-10-23T06:12:28.910Z,4.63
2023-10-23T06:14:58.770Z,4.85
2023-10-23T06:17:28.182Z,2.85
2023-10-23T06:19:56.294Z,4.40
2023-10-23T06:22:26.246Z,3.97
2023-10-23T06:24:54.382Z,3.72
2023-10-23T06:27:24.257Z,3.88
2023-10-23T06:29:52.305Z,7.05
2023-10-23T06:32:20.932Z,4.03
2023-10-23T06:34:52.488Z,3.72
2023-10-23T06:37:20.434Z,4.20
2023-10-23T06:39:48.447Z,3.85
2023-10-23T06:42:16.954Z,5.72
2023-10-23T06:44:45.012Z,5.13
2023-10-23T06:47:13.393Z,3.60
2023-10-23T06:49:44.649Z,5.03
2023-10-23T06:52:15.599Z,4.07
2023-10-23T06:54:43.605Z,6.07
2023-10-23T06:57:11.674Z,5.20
2023-10-23T06:59:40.020Z,3.97
2023-10-23T07:02:08.260Z,4.18
2023-10-23T07:04:36.287Z,6.68
2023-10-23T07:07:17.889Z,5.68
2023-10-23T07:09:47.983Z,8.27
2023-10-23T07:12:16.096Z,4.25
2023-10-23T07:14:44.171Z,3.78
2023-10-23T07:17:12.159Z,3.78
2023-10-23T07:19:40.482Z,7.47
2023-10-23T07:22:08.699Z,4.88
2023-10-23T07:24:36.766Z,7.10
2023-10-23T07:27:06.540Z,4.47
2023-10-23T07:29:34.550Z,4.80
2023-10-23T07:32:02.529Z,5.95
2023-10-23T07:34:30.581Z,5.53
2023-10-23T07:36:58.560Z,5.80
2023-10-23T07:39:27.177Z,6.13
2023-10-23T07:41:55.202Z,7.28
2023-10-23T07:44:25.071Z,4.72
2023-10-23T07:46:58.992Z,5.22
2023-10-23T07:49:27.055Z,4.90
2023-10-23T07:51:55.433Z,5.28
2023-10-23T07:54:23.563Z,4.18
2023-10-23T07:56:51.545Z,5.68
2023-10-23T07:59:19.526Z,3.83
2023-10-23T08:01:48.997Z,5.75
2023-10-23T08:04:17.824Z,4.07
2023-10-23T08:06:45.957Z,4.43
2023-10-23T08:09:14.088Z,4.25
2023-10-23T08:11:42.076Z,4.30
2023-10-23T08:14:10.205Z,3.35
2023-10-23T08:16:38.242Z,3.55
2023-10-23T08:19:07.667Z,4.60
2023-10-23T08:21:35.780Z,3.20
2023-10-23T08:24:04.352Z,4.40
2023-10-23T08:26:32.417Z,3.80
2023-10-23T08:29:03.036Z,4.75
2023-10-23T08:31:39.355Z,5.25
2023-10-23T08:34:10.561Z,3.08
2023-10-23T08:36:39.059Z,3.00
2023-10-23T08:39:07.351Z,4.75
2023-10-23T08:41:38.319Z,6.72
2023-10-23T08:44:09.497Z,8.85
2023-10-23T08:46:39.533Z,8.95
2023-10-23T08:49:09.497Z,8.23
2023-10-23T08:51:40.880Z,5.50
2023-10-23T08:54:12.038Z,4.03
2023-10-23T08:56:43.231Z,5.82
2023-10-23T08:59:13.499Z,4.00
2023-10-23T09:01:42.290Z,4.13
2023-10-23T09:04:13.254Z,2.92
2023-10-23T09:06:44.060Z,3.65
2023-10-23T09:09:12.804Z,3.63
2023-10-23T09:11:43.516Z,4.28
2023-10-23T09:14:12.279Z,4.50
2023-10-23T09:16:40.804Z,4.75
2023-10-23T09:19:08.901Z,3.97
2023-10-23T09:21:38.248Z,3.78
2023-10-23T09:24:07.692Z,6.30
2023-10-23T09:26:35.757Z,4.43
2023-10-23T09:29:03.732Z,5.68
2023-10-23T09:31:31.830Z,3.83
2023-10-23T09:33:59.906Z,4.10
2023-10-23T09:36:28.654Z,3.20
2023-10-23T09:39:02.740Z,6.68
2023-10-23T09:41:31.477Z,4.88
2023-10-23T09:44:01.849Z,5.25
2023-10-23T09:46:31.518Z,4.90
2023-10-23T09:49:03.987Z,6.45
2023-10-23T09:51:39.136Z,3.90
2023-10-23T09:54:16.439Z,4.90
2023-10-23T09:56:50.492Z,4.18
2023-10-23T09:59:19.799Z,4.93
2023-10-23T10:01:52.005Z,4.40
2023-10-23T10:04:26.794Z,4.00
2023-10-23T10:06:57.059Z,3.58
2023-10-23T10:09:27.444Z,2.85
2023-10-23T10:11:57.314Z,6.30
2023-10-23T10:14:26.665Z,3.60
2023-10-23T10:16:57.909Z,3.53
2023-10-23T10:19:28.317Z,3.92
2023-10-23T10:22:04.507Z,4.60
2023-10-23T10:24:35.129Z,5.82
2023-10-23T10:27:05.373Z,4.82
2023-10-23T10:29:34.400Z,3.30
2023-10-23T10:32:10.985Z,6.53
2023-10-23T10:34:56.009Z,5.15
2023-10-23T10:37:27.280Z,5.57
2023-10-23T10:40:11.498Z,3.75
2023-10-23T10:42:42.738Z,7.85
2023-10-23T10:45:17.760Z,4.20
2023-10-23T10:47:48.307Z,4.10
2023-10-23T10:50:37.471Z,4.50
2023-10-23T10:53:09.071Z,4.40
2023-10-23T10:55:39.508Z,4.07
2023-10-23T10:58:07.977Z,5.20
2023-10-23T11:00:39.236Z,3.95
2023-10-23T11:03:08.315Z,3.53
2023-10-23T11:05:39.345Z,3.00
2023-10-23T11:08:07.551Z,3.75
2023-10-23T11:10:35.816Z,5.63
2023-10-23T11:13:05.262Z,4.38
2023-10-23T11:15:42.112Z,5.43
2023-10-23T11:18:10.569Z,6.38
2023-10-23T11:20:41.114Z,4.85
2023-10-23T11:23:10.434Z,5.90
2023-10-23T11:25:38.561Z,4.82
2023-10-23T11:28:08.561Z,4.32
2023-10-23T11:30:47.203Z,6.25
2023-10-23T11:33:21.114Z,7.57
2023-10-23T11:35:49.143Z,5.22
2023-10-23T11:38:17.985Z,3.83
2023-10-23T11:40:46.406Z,5.47
2023-10-23T11:43:17.297Z,5.03
2023-10-23T11:45:48.329Z,4.00
2023-10-23T11:48:16.614Z,3.88
2023-10-23T11:50:44.887Z,6.32
2023-10-23T11:53:16.937Z,3.45
2023-10-23T11:55:46.756Z,4.65
2023-10-23T11:58:16.180Z,5.18
2023-10-23T12:00:44.199Z,4.53
2023-10-23T12:03:12.322Z,3.03
2023-10-23T12:05:40.407Z,4.63
2023-10-23T12:08:08.477Z,4.38
2023-10-23T12:10:39.374Z,4.78
2023-10-23T12:13:07.557Z,3.60
2023-10-23T12:15:37.022Z,3.75
2023-10-23T12:18:06.868Z,6.05
2023-10-23T12:20:35.070Z,3.97
2023-10-23T12:23:03.063Z,5.30
2023-10-23T12:25:31.279Z,4.60
2023-10-23T12:27:59.568Z,4.28
2023-10-23T12:30:32.564Z,2.47
2023-10-23T12:33:17.523Z,4.72
2023-10-23T12:35:51.288Z,5.65
2023-10-23T12:38:19.999Z,4.57
2023-10-23T12:40:49.806Z,5.13
2023-10-23T12:43:18.065Z,8.18
2023-10-23T12:45:47.801Z,6.18
2023-10-23T12:48:17.544Z,4.00
2023-10-23T12:50:46.007Z,3.20
2023-10-23T12:53:14.634Z,6.75
2023-10-23T12:55:44.086Z,3.92
2023-10-23T12:58:12.780Z,3.30
2023-10-23T13:00:40.872Z,4.57
2023-10-23T13:03:08.921Z,4.40
2023-10-23T13:05:38.261Z,10.10
2023-10-23T13:08:06.697Z,6.68
2023-10-23T13:10:35.025Z,3.05
2023-10-23T13:13:03.215Z,3.30
2023-10-23T13:15:31.253Z,6.60
2023-10-23T13:18:01.492Z,4.65
2023-10-23T13:20:53.977Z,7.70
2023-10-23T13:23:19.038Z,4.93
2023-10-23T13:25:57.843Z,4.45
2023-10-23T13:28:30.828Z,5.65
2023-10-23T13:31:05.272Z,3.78
2023-10-23T13:33:33.588Z,5.50
2023-10-23T13:36:01.628Z,2.33
2023-10-23T13:38:33.544Z,3.08
2023-10-23T13:41:03.088Z,3.10
2023-10-23T13:43:31.552Z,3.10
2023-10-23T13:45:59.841Z,4.53
2023-10-23T13:48:27.910Z,3.60
2023-10-23T13:50:55.890Z,4.47
2023-10-23T13:53:24.953Z,3.90
2023-10-23T13:55:54.492Z,3.35
2023-10-23T13:58:22.710Z,3.17
2023-10-23T14:00:51.398Z,4.95
2023-10-23T14:03:19.569Z,4.22
2023-10-23T14:05:47.752Z,3.08
2023-10-23T14:08:15.829Z,4.45
2023-10-23T14:10:44.119Z,11.10
2023-10-23T14:13:33.594Z,3.50
2023-10-23T14:16:01.746Z,3.80
2023-10-23T14:18:29.898Z,3.42
2023-10-23T14:20:57.882Z,5.10
2023-10-23T14:23:26.237Z,4.63
2023-10-23T14:25:54.197Z,3.05
2023-10-23T14:28:22.186Z,3.97
2023-10-23T14:30:52.511Z,2.13
2023-10-23T14:33:20.545Z,4.72
2023-10-23T14:35:48.515Z,3.92
2023-10-23T14:38:19.242Z,3.78
2023-10-23T14:40:54.467Z,3.88
2023-10-23T14:43:22.948Z,4.97
2023-10-23T14:45:53.056Z,5.78
2023-10-23T14:48:21.419Z,4.93
2023-10-23T14:50:52.834Z,3.50
2023-10-23T14:53:20.943Z,5.75
2023-10-23T14:55:48.968Z,3.85
2023-10-23T14:58:18.033Z,5.57
2023-10-23T15:00:46.214Z,3.75
2023-10-23T15:03:15.587Z,4.95
2023-10-23T15:05:43.689Z,3.70
2023-10-23T15:08:11.695Z,6.05
2023-10-23T15:10:39.958Z,4.88
2023-10-23T15:13:08.436Z,2.47
2023-10-23T15:15:37.821Z,8.13
2023-10-23T15:18:09.077Z,19.17
2023-10-23T15:20:38.500Z,16.90
2023-10-23T15:23:07.457Z,14.07
2023-10-23T15:25:35.539Z,11.48
2023-10-23T15:28:05.532Z,10.55
2023-10-23T15:30:33.998Z,10.07
2023-10-23T15:33:02.207Z,11.38
2023-10-23T15:35:31.411Z,10.85
2023-10-23T15:38:02.810Z,6.47
2023-10-23T15:40:32.506Z,8.20
2023-10-23T15:43:00.754Z,10.85
2023-10-23T15:45:39.108Z,9.95
2023-10-23T15:48:07.474Z,18.60
2023-10-23T15:50:35.499Z,12.52
2023-10-23T15:53:06.067Z,12.55
2023-10-23T15:55:34.351Z,12.68
2023-10-23T15:58:03.165Z,11.38
2023-10-23T16:00:31.410Z,9.27
2023-10-23T16:02:59.713Z,9.93
2023-10-23T16:05:28.096Z,6.15
2023-10-23T16:07:57.091Z,7.72
2023-10-23T16:10:26.727Z,6.78
2023-10-23T16:12:54.869Z,7.70
2023-10-23T16:15:25.974Z,5.53
2023-10-23T16:17:56.083Z,9.93
2023-10-23T16:20:24.155Z,6.47
2023-10-23T16:22:52.247Z,5.47
2023-10-23T16:25:21.620Z,6.85
2023-10-23T16:27:53.524Z,6.78
2023-10-23T16:30:22.330Z,5.53
2023-10-23T16:32:54.327Z,5.50
2023-10-23T16:35:21.826Z,6.57
2023-10-23T16:37:49.920Z,6.85
2023-10-23T16:40:20.234Z,8.65
2023-10-23T16:42:49.515Z,6.30
2023-10-23T16:45:20.092Z,9.82
2023-10-23T16:47:48.102Z,13.18
2023-10-23T16:50:16.227Z,11.13
2023-10-23T16:52:45.984Z,8.10
2023-10-23T16:55:14.721Z,7.30
2023-10-23T16:57:45.073Z,6.68
2023-10-23T17:00:16.015Z,4.05
2023-10-23T17:02:45.543Z,4.18
2023-10-23T17:05:13.911Z,5.40
2023-10-23T17:07:43.372Z,8.95
2023-10-23T17:10:11.718Z,8.68
2023-10-23T17:12:39.866Z,5.75
2023-10-23T17:15:10.518Z,6.40
2023-10-23T17:17:38.548Z,3.47
2023-10-23T17:20:11.080Z,5.10
2023-10-23T17:22:39.500Z,5.35
2023-10-23T17:25:09.045Z,4.63
2023-10-23T17:27:37.290Z,5.55
2023-10-23T17:30:05.890Z,5.07
2023-10-23T17:32:34.213Z,4.55
2023-10-23T17:35:02.240Z,4.25
2023-10-23T17:37:32.142Z,6.43
2023-10-23T17:40:00.883Z,7.57
2023-10-23T17:42:28.977Z,6.80
2023-10-23T17:44:56.931Z,3.78
2023-10-23T17:47:27.559Z,4.40
2023-10-23T17:49:55.771Z,3.88
2023-10-23T17:52:23.818Z,4.05
2023-10-23T17:54:53.253Z,5.82
2023-10-23T17:57:21.744Z,3.28
2023-10-23T17:59:49.744Z,2.92
2023-10-23T18:02:18.460Z,3.70
2023-10-23T18:04:48.747Z,5.13
2023-10-23T18:07:16.830Z,3.20
2023-10-23T18:09:45.391Z,4.93
2023-10-23T18:12:26.523Z,4.53
2023-10-23T18:14:55.183Z,5.22
2023-10-23T18:17:23.276Z,4.55
2023-10-23T18:19:51.335Z,4.60
2023-10-23T18:22:20.430Z,4.53
2023-10-23T18:24:50.857Z,4.53
2023-10-23T18:27:20.296Z,3.67
2023-10-23T18:29:48.290Z,5.20
2023-10-23T18:32:16.341Z,4.65
2023-10-23T18:34:44.428Z,4.70
2023-10-23T18:37:12.587Z,4.97
2023-10-23T18:39:41.263Z,6.60
2023-10-23T18:42:09.485Z,7.50
2023-10-23T18:44:38.849Z,6.15
2023-10-23T18:47:08.414Z,5.25
2023-10-23T18:49:36.576Z,9.25
2023-10-23T18:52:05.078Z,11.48
2023-10-23T18:54:35.644Z,6.10
2023-10-23T18:57:03.824Z,9.00
2023-10-23T18:59:31.866Z,5.72
2023-10-23T19:02:01.374Z,7.25
2023-10-23T19:04:29.466Z,6.03
2023-10-23T19:06:57.545Z,6.13
2023-10-23T19:09:25.582Z,7.78
2023-10-23T19:11:53.568Z,7.00
2023-10-23T19:14:21.610Z,7.20
2023-10-23T19:16:49.861Z,6.50
2023-10-23T19:19:19.350Z,6.43
2023-10-23T19:21:47.537Z,5.20
2023-10-23T19:24:15.739Z,6.38
2023-10-23T19:26:44.667Z,7.97
2023-10-23T19:29:12.701Z,8.32
2023-10-23T19:31:42.110Z,10.52
2023-10-23T19:34:11.306Z,8.38
2023-10-23T19:36:41.411Z,8.50
2023-10-23T19:39:10.278Z,9.30
2023-10-23T19:41:45.217Z,6.57
2023-10-23T19:44:22.330Z,5.97
2023-10-23T19:46:50.798Z,8.02
2023-10-23T19:49:19.539Z,10.48
2023-10-23T19:51:49.515Z,6.03
2023-10-23T19:54:37.897Z,7.70
2023-10-23T19:57:08.416Z,6.80
2023-10-23T19:59:37.979Z,7.13
2023-10-23T20:02:06.374Z,10.65
2023-10-23T20:04:34.814Z,7.15
2023-10-23T20:07:04.460Z,7.18
2023-10-23T20:12:01.878Z,7.95
2023-10-23T20:14:30.294Z,6.68
2023-10-23T20:16:58.540Z,7.25
2023-10-23T20:19:26.878Z,8.57
2023-10-23T20:21:58.217Z,7.80
2023-10-23T20:24:30.374Z,6.75
2023-10-23T20:27:00.266Z,7.97
2023-10-23T20:29:28.349Z,9.60
2023-10-23T20:31:56.835Z,6.65
2023-10-23T20:34:25.203Z,11.20
2023-10-23T20:36:53.333Z,11.60
2023-10-23T20:39:21.339Z,6.95
2023-10-23T20:41:50.829Z,9.65
2023-10-23T20:44:18.941Z,7.15
2023-10-23T20:46:47.113Z,9.35
2023-10-23T20:49:15.271Z,7.47
2023-10-23T20:51:43.339Z,7.88
2023-10-23T20:54:12.511Z,6.32
2023-10-23T21:01:51.496Z,7.32
2023-10-23T21:04:19.720Z,8.98
2023-10-23T21:06:48.018Z,7.55
2023-10-23T21:09:16.178Z,9.27
2023-10-23T21:11:44.917Z,8.00
2023-10-23T21:14:23.466Z,9.60
2023-10-23T21:16:52.878Z,7.78
2023-10-23T21:19:22.347Z,8.02
2023-10-23T21:21:51.681Z,6.80
2023-10-23T21:24:19.717Z,6.43
2023-10-23T21:26:47.816Z,9.15
2023-10-23T21:29:19.075Z,7.75
2023-10-23T21:31:52.981Z,8.88
2023-10-23T21:34:21.644Z,9.95
2023-10-23T21:36:49.756Z,7.70
2023-10-23T21:39:17.793Z,10.35
2023-10-23T21:41:45.831Z,6.40
2023-10-23T21:44:13.876Z,7.90
2023-10-23T21:46:42.107Z,5.93
2023-10-23T21:49:12.132Z,7.40
2023-10-23T21:51:41.336Z,5.85
2023-10-23T21:54:10.389Z,7.28
2023-10-23T21:57:20.813Z,6.55
2023-10-23T21:59:27.398Z,7.55
2023-10-23T22:01:56.186Z,6.93
2023-10-23T22:04:27.414Z,8.02
2023-10-23T22:06:56.258Z,11.25
2023-10-23T22:09:24.719Z,7.95
2023-10-23T22:11:53.403Z,10.60
2023-10-23T22:14:21.953Z,7.85
2023-10-23T22:16:50.104Z,7.57
2023-10-23T22:19:18.323Z,6.43
2023-10-23T22:21:47.709Z,7.25
2023-10-23T22:24:15.717Z,11.68
2023-10-23T22:26:43.844Z,9.10
2023-10-23T22:29:11.846Z,6.15
2023-10-23T22:31:40.022Z,7.10
2023-10-23T22:34:08.237Z,8.05
2023-10-23T22:36:36.265Z,5.55
2023-10-23T22:39:06.192Z,6.22
2023-10-23T22:41:34.415Z,6.85
2023-10-23T22:44:02.427Z,8.60
2023-10-23T22:46:30.711Z,8.15
2023-10-23T22:48:58.765Z,5.93
2023-10-23T22:51:27.376Z,7.70
2023-10-23T22:53:55.902Z,7.38
2023-10-23T22:56:26.803Z,6.75
2023-10-23T22:58:56.213Z,6.00
2023-10-23T23:01:24.858Z,8.35
2023-10-23T23:03:54.371Z,9.23
2023-10-23T23:06:23.556Z,7.13
2023-10-23T23:08:53.691Z,5.70
2023-10-23T23:11:22.816Z,6.18
2023-10-23T23:13:52.903Z,7.00
2023-10-23T23:16:22.155Z,8.98
2023-10-23T23:18:51.080Z,8.23
2023-10-23T23:21:21.418Z,8.90
2023-10-23T23:23:49.509Z,8.00
2023-10-23T23:26:17.596Z,6.78
2023-10-23T23:28:45.634Z,6.55
2023-10-23T23:31:15.050Z,6.93
2023-10-23T23:33:43.144Z,7.00
2023-10-23T23:36:11.143Z,8.43
2023-10-23T23:38:39.238Z,9.32
2023-10-23T23:41:08.548Z,8.85
2023-10-23T23:43:37.402Z,5.32
2023-10-23T23:46:05.482Z,6.55
2023-10-23T23:48:34.919Z,6.15
2023-10-23T23:51:03.001Z,8.05
2023-10-23T23:53:31.135Z,8.98
2023-10-23T23:55:59.145Z,5.40
2023-10-23T23:58:27.421Z,6.72
